Time;durP1;ratioP1;P1;durP2;ratioP2;P2;SDS_P1;SDS_P2;PMS_P1;PMS_P2;Temp;Humidity;BMP_temperature;BMP_pressure;BME280_temperature;BME280_humidity;BME280_pressure;Samples;Min_cycle;Max_cycle;Signal;HPM_P1;HPM_P2
2022/06/17 00:01:57;;;;;;;;;;;13.20;99.90;;;;;;5030088;28;20300;-77
2022/06/17 00:04:24;;;;;;;;;;;13.20;99.90;;;;;;5014927;28;19916;-78
2022/06/17 00:07:02;;;;;;;;;;;13.30;99.90;;;;;;5014728;28;19955;-77
2022/06/17 00:09:30;;;;;;;;;;;13.30;99.90;;;;;;5014778;28;20280;-78
2022/06/17 00:11:57;;;;;;;;;;;13.40;99.90;;;;;;5014444;28;20016;-76
2022/06/17 00:14:26;;;;;;;;;;;13.50;99.90;;;;;;5014562;28;19914;-80
2022/06/17 00:16:52;;;;;;;;;;;13.50;99.90;;;;;;5014553;28;19953;-78
2022/06/17 00:19:19;;;;;;;;;;;13.60;99.90;;;;;;5014514;28;20375;-80
2022/06/17 00:21:50;;;;;;;;;;;13.70;99.90;;;;;;5014348;28;19909;-78
2022/06/17 00:24:21;;;;;;;;;;;13.80;99.90;;;;;;5014428;28;20289;-75
2022/06/17 00:26:48;;;;;;;;;;;13.80;99.90;;;;;;5014310;28;19910;-78
2022/06/17 00:29:17;;;;;;;;;;;13.90;99.90;;;;;;5014275;28;20360;-77
2022/06/17 00:31:43;;;;;;;;;;;13.90;99.90;;;;;;5014065;28;19949;-73
2022/06/17 00:34:13;;;;;;;;;;;14.00;99.90;;;;;;5014346;28;19949;-78
2022/06/17 00:36:40;;;;;;;;;;;14.00;99.90;;;;;;5014247;28;20000;-76
2022/06/17 00:39:13;;;;;;;;;;;14.20;99.90;;;;;;5013836;28;19932;-74
2022/06/17 00:41:40;;;;;;;;;;;14.20;99.90;;;;;;5013791;28;19916;-75
2022/06/17 00:44:32;;;;;;;;;;;14.20;99.90;;;;;;5014236;28;19909;-75
2022/06/17 00:47:05;;;;;;;;;;;14.20;99.90;;;;;;5005754;28;20276;-77
2022/06/17 00:49:38;;;;;;;;;;;14.30;99.90;;;;;;5013762;28;19916;-77
2022/06/17 00:52:07;;;;;;;;;;;14.40;99.90;;;;;;5013627;28;19924;-77
2022/06/17 00:54:34;;;;;;;;;;;14.40;99.90;;;;;;5014251;28;19918;-78
2022/06/17 00:57:01;;;;;;;;;;;14.50;99.90;;;;;;5013908;28;19917;-78
2022/06/17 00:59:28;;;;;;;;;;;14.50;99.90;;;;;;5013965;28;19916;-78
2022/06/17 01:02:06;;;;;;;;;;;14.60;99.90;;;;;;5013890;28;19996;-79
2022/06/17 01:04:34;;;;;;;;;;;14.90;99.90;;;;;;5013945;28;19968;-78
2022/06/17 01:07:04;;;;;;;;;;;15.10;99.90;;;;;;5013796;28;19949;-77
2022/06/17 01:12:19;;;;;;;;;;;15.60;99.90;;;;;;5013585;28;19924;-78
2022/06/17 01:14:46;;;;;;;;;;;15.80;99.90;;;;;;5013750;28;19910;-77
2022/06/17 01:17:14;;;;;;;;;;;16.00;99.90;;;;;;5013769;28;20388;-76
2022/06/17 01:19:45;;;;;;;;;;;16.10;99.90;;;;;;5013443;28;19917;-75
2022/06/17 01:22:27;;;;;;;;;;;16.00;99.90;;;;;;5013568;28;19909;-76
2022/06/17 01:24:57;;;;;;;;;;;16.00;99.90;;;;;;5013436;28;19910;-79
2022/06/17 01:27:25;;;;;;;;;;;15.90;99.90;;;;;;5013406;28;20276;-78
2022/06/17 01:29:52;;;;;;;;;;;15.80;99.90;;;;;;5013312;28;19910;-77
2022/06/17 01:32:21;;;;;;;;;;;15.70;99.90;;;;;;5013372;28;20284;-77
2022/06/17 01:34:48;;;;;;;;;;;15.70;99.90;;;;;;5013361;28;19932;-77
2022/06/17 01:37:16;;;;;;;;;;;15.80;99.90;;;;;;5013416;28;19913;-74
2022/06/17 01:39:42;;;;;;;;;;;15.80;99.90;;;;;;5013298;28;19949;-77
2022/06/17 01:42:10;;;;;;;;;;;15.80;99.90;;;;;;5013295;28;19917;-76
2022/06/17 01:44:38;;;;;;;;;;;15.80;99.90;;;;;;5013360;28;19910;-77
2022/06/17 01:47:07;;;;;;;;;;;15.70;99.90;;;;;;5013341;28;20339;-75
2022/06/17 01:49:36;;;;;;;;;;;15.70;99.90;;;;;;5014121;28;19937;-77
2022/06/17 01:52:05;;;;;;;;;;;15.70;99.90;;;;;;5016986;28;19959;-77
2022/06/17 01:54:34;;;;;;;;;;;15.70;99.90;;;;;;5017258;28;19918;-77
2022/06/17 01:57:02;;;;;;;;;;;15.80;99.90;;;;;;5017128;28;19909;-77
2022/06/17 01:59:39;;;;;;;;;;;15.80;99.90;;;;;;5016832;28;20039;-76
2022/06/17 02:02:07;;;;;;;;;;;15.90;99.90;;;;;;5017004;28;19997;-79
2022/06/17 02:04:38;;;;;;;;;;;15.90;99.90;;;;;;5017045;28;19973;-74
2022/06/17 02:07:14;;;;;;;;;;;15.80;99.90;;;;;;5016824;28;20004;-79
2022/06/17 02:09:41;;;;;;;;;;;15.90;99.90;;;;;;5016782;28;19913;-76
2022/06/17 02:12:08;;;;;;;;;;;15.90;99.90;;;;;;5016570;28;19917;-80
2022/06/17 02:14:35;;;;;;;;;;;16.00;99.90;;;;;;5016782;28;20322;-77
2022/06/17 02:17:02;;;;;;;;;;;16.10;99.90;;;;;;5016851;28;19917;-80
2022/06/17 02:19:31;;;;;;;;;;;16.00;99.90;;;;;;5016820;28;19956;-80
2022/06/17 02:22:02;;;;;;;;;;;16.10;99.90;;;;;;5025244;28;19917;-82
2022/06/17 02:24:29;;;;;;;;;;;16.10;99.90;;;;;;5033126;28;19955;-79
2022/06/17 02:27:01;;;;;;;;;;;16.20;99.90;;;;;;5056425;28;19996;-81
2022/06/17 02:29:30;;;;;;;;;;;16.10;99.90;;;;;;5056244;28;19991;-82
2022/06/17 02:31:58;;;;;;;;;;;16.20;99.90;;;;;;5056354;28;20018;-83
2022/06/17 02:34:26;;;;;;;;;;;16.10;99.90;;;;;;5056119;28;20326;-80
2022/06/17 02:37:12;;;;;;;;;;;16.20;99.90;;;;;;5056201;28;19971;-78
2022/06/17 02:39:42;;;;;;;;;;;16.10;99.90;;;;;;5056075;28;19916;-82
2022/06/17 02:42:18;;;;;;;;;;;16.10;99.90;;;;;;5056183;28;19909;-80
2022/06/17 02:44:46;;;;;;;;;;;16.20;99.90;;;;;;5055900;28;19909;-79
2022/06/17 02:47:12;;;;;;;;;;;16.50;99.90;;;;;;5056027;28;19947;-79
2022/06/17 02:49:40;;;;;;;;;;;16.70;99.90;;;;;;5056196;28;19916;-81
2022/06/17 02:52:10;;;;;;;;;;;16.80;99.90;;;;;;5025926;28;20361;-80
2022/06/17 02:54:40;;;;;;;;;;;16.80;99.90;;;;;;5034130;28;20253;-83
2022/06/17 02:57:10;;;;;;;;;;;16.70;99.90;;;;;;5044843;28;19908;-79
2022/06/17 02:59:41;;;;;;;;;;;16.80;99.90;;;;;;5055587;28;19916;-77
2022/06/17 03:02:34;;;;;;;;;;;16.90;99.90;;;;;;5056593;28;19909;-82
2022/06/17 03:05:01;;;;;;;;;;;17.00;99.90;;;;;;5054742;28;19908;-81
2022/06/17 03:07:30;;;;;;;;;;;16.90;99.90;;;;;;5070921;28;20274;-83
2022/06/17 03:09:56;;;;;;;;;;;16.90;99.90;;;;;;5055803;28;19908;-81
2022/06/17 03:12:26;;;;;;;;;;;16.90;99.90;;;;;;5055499;28;19925;-82
2022/06/17 03:14:57;;;;;;;;;;;17.10;99.90;;;;;;5055459;28;20418;-83
2022/06/17 03:17:25;;;;;;;;;;;17.10;99.90;;;;;;5055394;28;19915;-83
2022/06/17 03:19:55;;;;;;;;;;;17.10;99.90;;;;;;5055245;28;19916;-80
2022/06/17 03:22:24;;;;;;;;;;;17.00;99.90;;;;;;5055445;28;19909;-79
2022/06/17 03:24:50;;;;;;;;;;;17.00;99.90;;;;;;5055244;28;19908;-76
2022/06/17 03:27:32;;;;;;;;;;;17.10;99.90;;;;;;5055260;28;19913;-76
2022/06/17 03:30:00;;;;;;;;;;;17.00;99.90;;;;;;5055325;28;19908;-76
2022/06/17 03:32:30;;;;;;;;;;;17.10;99.90;;;;;;5055239;28;19924;-76
2022/06/17 03:34:57;;;;;;;;;;;17.10;99.90;;;;;;5055252;28;19912;-76
2022/06/17 03:37:24;;;;;;;;;;;17.00;99.90;;;;;;5055224;28;19944;-76
2022/06/17 03:39:52;;;;;;;;;;;17.00;99.90;;;;;;5054950;28;20359;-75
2022/06/17 03:42:34;;;;;;;;;;;17.00;99.90;;;;;;5054901;28;19916;-75
2022/06/17 03:45:06;;;;;;;;;;;17.00;99.90;;;;;;5054973;28;19908;-74
2022/06/17 03:47:39;;;;;;;;;;;16.90;99.90;;;;;;5054617;28;19920;-75
2022/06/17 03:50:08;;;;;;;;;;;16.90;99.90;;;;;;5054981;28;19909;-75
2022/06/17 03:52:56;;;;;;;;;;;16.90;99.90;;;;;;5069899;28;20310;-74
2022/06/17 03:55:23;;;;;;;;;;;16.80;99.90;;;;;;5054747;28;19921;-75
2022/06/17 03:57:52;;;;;;;;;;;16.80;99.90;;;;;;5054611;28;19913;-75
2022/06/17 04:00:35;;;;;;;;;;;16.90;99.90;;;;;;5054793;28;19909;-75
2022/06/17 04:03:03;;;;;;;;;;;16.90;99.90;;;;;;5054695;28;20319;-75
2022/06/17 04:05:30;;;;;;;;;;;16.90;99.90;;;;;;5054483;28;20372;-75
2022/06/17 04:07:57;;;;;;;;;;;17.00;99.90;;;;;;5054616;28;19986;-76
2022/06/17 04:10:25;;;;;;;;;;;16.90;99.90;;;;;;5054347;28;19955;-75
2022/06/17 04:12:52;;;;;;;;;;;16.90;99.90;;;;;;5053842;28;19998;-77
2022/06/17 04:15:37;;;;;;;;;;;16.90;99.90;;;;;;5054321;28;19915;-75
2022/06/17 04:18:04;;;;;;;;;;;17.00;99.90;;;;;;5054551;28;19963;-74
2022/06/17 04:20:33;;;;;;;;;;;17.00;99.90;;;;;;5054225;28;19909;-76
2022/06/17 04:23:17;;;;;;;;;;;17.00;99.90;;;;;;5054196;28;20275;-79
2022/06/17 04:25:46;;;;;;;;;;;17.00;99.90;;;;;;5053851;28;19919;-79
2022/06/17 04:28:15;;;;;;;;;;;17.00;99.90;;;;;;5054048;28;19913;-80
2022/06/17 04:30:44;;;;;;;;;;;17.10;99.90;;;;;;5054163;28;20359;-80
2022/06/17 04:33:31;;;;;;;;;;;17.00;99.90;;;;;;5054107;28;19915;-80
2022/06/17 04:36:18;;;;;;;;;;;16.90;99.90;;;;;;5053780;28;19995;-80
2022/06/17 04:39:07;;;;;;;;;;;16.90;99.90;;;;;;5053765;28;19963;-81
2022/06/17 04:41:35;;;;;;;;;;;16.80;99.90;;;;;;5052352;28;19909;-76
2022/06/17 04:44:03;;;;;;;;;;;16.80;99.90;;;;;;5053852;28;19909;-82
2022/06/17 04:46:33;;;;;;;;;;;16.70;99.90;;;;;;5053808;28;20374;-81
2022/06/17 04:49:00;;;;;;;;;;;16.70;99.90;;;;;;5054130;28;19916;-81
2022/06/17 04:51:28;;;;;;;;;;;16.70;99.90;;;;;;5053917;28;19940;-79
2022/06/17 04:53:55;;;;;;;;;;;16.60;99.90;;;;;;5053712;28;19931;-82
2022/06/17 04:56:31;;;;;;;;;;;16.60;99.90;;;;;;5053688;28;20351;-77
2022/06/17 04:58:57;;;;;;;;;;;16.60;99.90;;;;;;5053667;28;20007;-81
2022/06/17 05:01:29;;;;;;;;;;;16.70;99.90;;;;;;5053662;28;19955;-81
2022/06/17 05:03:59;;;;;;;;;;;16.60;99.90;;;;;;5053564;28;19999;-76
2022/06/17 05:06:26;;;;;;;;;;;16.70;99.90;;;;;;5053443;28;19916;-80
2022/06/17 05:09:02;;;;;;;;;;;16.70;99.90;;;;;;5053303;28;19909;-78
2022/06/17 05:11:33;;;;;;;;;;;16.70;99.90;;;;;;5051654;28;20012;-79
2022/06/17 05:14:03;;;;;;;;;;;16.70;99.90;;;;;;5053139;28;19909;-81
2022/06/17 05:16:29;;;;;;;;;;;16.60;99.90;;;;;;5051967;28;20386;-81
2022/06/17 05:18:56;;;;;;;;;;;16.60;99.90;;;;;;5053252;28;19908;-78
2022/06/17 05:21:24;;;;;;;;;;;16.60;99.90;;;;;;5053277;28;20007;-79
2022/06/17 05:23:52;;;;;;;;;;;16.50;99.90;;;;;;5052211;28;20356;-77
2022/06/17 05:26:19;;;;;;;;;;;16.50;99.90;;;;;;5053010;28;19908;-80
2022/06/17 05:28:46;;;;;;;;;;;16.50;99.90;;;;;;5053134;28;19909;-79
2022/06/17 05:31:18;;;;;;;;;;;16.50;99.90;;;;;;5053205;28;20019;-80
2022/06/17 05:33:49;;;;;;;;;;;16.50;99.90;;;;;;5052810;28;20009;-80
2022/06/17 05:36:16;;;;;;;;;;;16.40;99.90;;;;;;5052966;28;19955;-78
2022/06/17 05:38:44;;;;;;;;;;;16.40;99.90;;;;;;5052987;28;19909;-81
2022/06/17 05:41:14;;;;;;;;;;;16.40;99.90;;;;;;5052757;28;20252;-78
2022/06/17 05:43:42;;;;;;;;;;;16.40;99.90;;;;;;5052889;28;19916;-79
2022/06/17 05:46:08;;;;;;;;;;;16.30;99.90;;;;;;5052993;28;19916;-79
2022/06/17 05:48:35;;;;;;;;;;;16.30;99.90;;;;;;5052928;28;19909;-79
2022/06/17 05:51:02;;;;;;;;;;;16.30;99.90;;;;;;5052782;28;20249;-79
2022/06/17 05:53:28;;;;;;;;;;;16.20;99.90;;;;;;5052762;28;20003;-78
2022/06/17 05:55:56;;;;;;;;;;;16.20;99.90;;;;;;5052649;28;20256;-78
2022/06/17 05:58:23;;;;;;;;;;;16.20;99.90;;;;;;5052545;28;19947;-79
2022/06/17 06:00:50;;;;;;;;;;;16.10;99.90;;;;;;5052795;28;19955;-78
2022/06/17 06:03:20;;;;;;;;;;;16.10;99.90;;;;;;5052801;28;19931;-77
2022/06/17 06:05:46;;;;;;;;;;;16.10;99.90;;;;;;5052342;28;19908;-79
2022/06/17 06:08:13;;;;;;;;;;;16.10;99.90;;;;;;5052646;28;19913;-78
2022/06/17 06:10:40;;;;;;;;;;;16.00;99.90;;;;;;5052577;28;20432;-78
2022/06/17 06:13:07;;;;;;;;;;;16.00;99.90;;;;;;5052816;28;19909;-79
2022/06/17 06:15:39;;;;;;;;;;;16.00;99.90;;;;;;5052382;28;19935;-78
2022/06/17 06:18:07;;;;;;;;;;;15.90;99.90;;;;;;5052714;28;19913;-78
2022/06/17 06:20:34;;;;;;;;;;;15.90;99.90;;;;;;5052695;28;19913;-79
2022/06/17 06:23:00;;;;;;;;;;;15.90;99.90;;;;;;5052690;28;20311;-79
2022/06/17 06:25:27;;;;;;;;;;;15.90;99.90;;;;;;5052425;28;20379;-79
2022/06/17 06:27:54;;;;;;;;;;;15.80;99.90;;;;;;5050982;28;20367;-77
2022/06/17 06:30:28;;;;;;;;;;;15.90;99.90;;;;;;5052302;28;19962;-78
2022/06/17 06:32:59;;;;;;;;;;;15.90;99.90;;;;;;5052565;28;19912;-78
2022/06/17 06:35:28;;;;;;;;;;;15.80;99.90;;;;;;5053117;28;19909;-78
2022/06/17 06:37:55;;;;;;;;;;;15.80;99.90;;;;;;5056017;28;19909;-78
2022/06/17 06:40:22;;;;;;;;;;;15.80;99.90;;;;;;5056006;28;19908;-78
2022/06/17 06:42:49;;;;;;;;;;;15.80;99.90;;;;;;5056087;28;20346;-78
2022/06/17 06:45:30;;;;;;;;;;;15.70;99.90;;;;;;5055985;28;20253;-79
2022/06/17 06:47:58;;;;;;;;;;;15.70;99.90;;;;;;5056000;28;19916;-76
2022/06/17 06:50:26;;;;;;;;;;;15.70;99.90;;;;;;5055777;28;19954;-77
2022/06/17 06:52:53;;;;;;;;;;;15.70;99.90;;;;;;5052981;28;19971;-77
2022/06/17 06:55:20;;;;;;;;;;;15.70;99.90;;;;;;5053883;28;19924;-77
2022/06/17 06:57:47;;;;;;;;;;;15.70;99.90;;;;;;5053564;28;20317;-77
2022/06/17 07:00:15;;;;;;;;;;;15.70;99.90;;;;;;5053553;28;19912;-75
2022/06/17 07:02:42;;;;;;;;;;;15.70;99.90;;;;;;5053528;28;20427;-77
2022/06/17 07:05:09;;;;;;;;;;;15.70;99.90;;;;;;5053303;28;20343;-78
2022/06/17 07:07:36;;;;;;;;;;;15.80;99.90;;;;;;5053237;28;19916;-78
2022/06/17 07:10:03;;;;;;;;;;;15.70;99.90;;;;;;5053326;28;20326;-77
2022/06/17 07:12:30;;;;;;;;;;;15.70;99.90;;;;;;5053512;28;19928;-78
2022/06/17 07:14:57;;;;;;;;;;;15.70;99.90;;;;;;5035688;28;19909;-76
2022/06/17 07:17:24;;;;;;;;;;;15.60;99.90;;;;;;5013682;28;19910;-78
2022/06/17 07:19:50;;;;;;;;;;;15.60;99.90;;;;;;5012972;28;20297;-79
2022/06/17 07:22:17;;;;;;;;;;;15.50;99.90;;;;;;5013780;28;20355;-78
2022/06/17 07:24:44;;;;;;;;;;;15.50;99.90;;;;;;5013473;28;20284;-77
2022/06/17 07:27:10;;;;;;;;;;;15.50;99.90;;;;;;5012823;28;20024;-79
2022/06/17 07:29:37;;;;;;;;;;;15.50;99.90;;;;;;5013311;28;20364;-79
2022/06/17 07:32:04;;;;;;;;;;;15.40;99.90;;;;;;5013300;28;19921;-76
2022/06/17 07:34:31;;;;;;;;;;;15.30;99.90;;;;;;5013417;28;19913;-79
2022/06/17 07:39:55;;;;;;;;;;;15.30;99.90;;;;;;5013194;28;19915;-77
2022/06/17 07:42:37;;;;;;;;;;;15.30;99.90;;;;;;5013254;28;19929;-78
2022/06/17 07:45:05;;;;;;;;;;;15.30;99.90;;;;;;5013258;28;19914;-78
2022/06/17 07:47:32;;;;;;;;;;;15.40;99.90;;;;;;5012135;28;20386;-78
2022/06/17 07:49:58;;;;;;;;;;;15.40;99.90;;;;;;5013072;28;19913;-77
2022/06/17 07:52:25;;;;;;;;;;;15.40;99.90;;;;;;5012842;28;20012;-78
2022/06/17 07:54:52;;;;;;;;;;;15.40;99.90;;;;;;5012901;28;19973;-78
2022/06/17 07:57:19;;;;;;;;;;;15.40;99.90;;;;;;5013130;28;20288;-78
2022/06/17 07:59:45;;;;;;;;;;;15.40;99.90;;;;;;5013069;28;19917;-75
2022/06/17 08:02:12;;;;;;;;;;;15.40;99.90;;;;;;5012953;28;19956;-78
2022/06/17 08:04:40;;;;;;;;;;;15.40;99.90;;;;;;5012731;28;19910;-78
2022/06/17 08:07:07;;;;;;;;;;;15.40;99.90;;;;;;5044156;28;19917;-78
2022/06/17 08:09:34;;;;;;;;;;;15.40;99.90;;;;;;5012434;28;19910;-79
2022/06/17 08:12:01;;;;;;;;;;;15.40;99.90;;;;;;5012814;28;19917;-78
2022/06/17 08:14:27;;;;;;;;;;;15.40;99.90;;;;;;5012836;28;20491;-77
2022/06/17 08:16:54;;;;;;;;;;;15.40;99.90;;;;;;5012442;28;19928;-76
2022/06/17 08:19:21;;;;;;;;;;;15.40;99.90;;;;;;5012138;28;20333;-78
2022/06/17 08:21:48;;;;;;;;;;;15.40;99.90;;;;;;5012242;28;20319;-79
2022/06/17 08:24:14;;;;;;;;;;;15.40;99.90;;;;;;5012334;28;20011;-77
2022/06/17 08:26:41;;;;;;;;;;;15.40;99.90;;;;;;5012478;28;19913;-77
2022/06/17 08:29:08;;;;;;;;;;;15.40;99.90;;;;;;5012284;28;19933;-75
2022/06/17 08:31:34;;;;;;;;;;;15.50;99.90;;;;;;5012221;28;19932;-75
2022/06/17 08:34:01;;;;;;;;;;;15.50;99.90;;;;;;5012024;28;19931;-78
2022/06/17 08:36:28;;;;;;;;;;;15.50;99.90;;;;;;5012294;28;20407;-75
2022/06/17 08:39:00;;;;;;;;;;;15.50;99.90;;;;;;5012035;28;19910;-75
2022/06/17 08:41:31;;;;;;;;;;;15.50;99.90;;;;;;5012167;28;19910;-75
2022/06/17 08:44:04;;;;;;;;;;;15.50;99.90;;;;;;5012304;28;20016;-76
2022/06/17 08:46:33;;;;;;;;;;;15.50;99.90;;;;;;5011518;28;19910;-77
2022/06/17 08:49:07;;;;;;;;;;;15.50;99.90;;;;;;5012286;28;19910;-79
2022/06/17 08:51:36;;;;;;;;;;;15.40;99.90;;;;;;5011744;28;19922;-77
2022/06/17 08:54:12;;;;;;;;;;;15.40;99.90;;;;;;5011876;28;19937;-78
2022/06/17 08:56:39;;;;;;;;;;;15.50;99.90;;;;;;5012024;28;19909;-76
2022/06/17 08:59:13;;;;;;;;;;;15.50;99.90;;;;;;5011622;28;19913;-78
2022/06/17 09:01:49;;;;;;;;;;;15.50;99.90;;;;;;5012092;28;19924;-77
2022/06/17 09:04:18;;;;;;;;;;;15.50;99.90;;;;;;5011779;28;19987;-76
2022/06/17 09:07:07;;;;;;;;;;;15.50;99.90;;;;;;5013815;28;19932;-79
2022/06/17 09:09:52;;;;;;;;;;;15.40;99.90;;;;;;5013443;28;20020;-77
2022/06/17 09:12:36;;;;;;;;;;;15.40;99.90;;;;;;5014012;28;19924;-78
2022/06/17 09:15:09;;;;;;;;;;;15.40;99.90;;;;;;5013724;28;19984;-77
2022/06/17 09:17:35;;;;;;;;;;;15.30;99.90;;;;;;5013382;28;19917;-78
2022/06/17 09:20:04;;;;;;;;;;;15.30;99.90;;;;;;5013699;28;19913;-78
2022/06/17 09:22:35;;;;;;;;;;;15.30;99.90;;;;;;5013720;28;20261;-78
2022/06/17 09:25:06;;;;;;;;;;;15.30;99.90;;;;;;5013623;28;19910;-77
2022/06/17 09:27:37;;;;;;;;;;;15.30;99.90;;;;;;5013494;28;19913;-76
2022/06/17 09:30:04;;;;;;;;;;;15.20;99.90;;;;;;5013568;28;19916;-79
2022/06/17 09:32:37;;;;;;;;;;;15.30;99.90;;;;;;5013363;28;19918;-77
2022/06/17 09:35:06;;;;;;;;;;;15.20;99.90;;;;;;5013682;28;19925;-77
2022/06/17 09:37:52;;;;;;;;;;;15.20;99.90;;;;;;5013205;28;19910;-78
2022/06/17 09:40:26;;;;;;;;;;;15.10;99.90;;;;;;5009455;28;19909;-78
2022/06/17 09:42:59;;;;;;;;;;;15.10;99.90;;;;;;5013495;28;19964;-77
2022/06/17 09:45:33;;;;;;;;;;;15.10;99.90;;;;;;5013503;28;19932;-78
2022/06/17 09:48:11;;;;;;;;;;;15.10;99.90;;;;;;5013484;28;19909;-77
2022/06/17 09:50:40;;;;;;;;;;;15.00;99.90;;;;;;5013305;28;20027;-78
2022/06/17 09:53:33;;;;;;;;;;;15.00;99.90;;;;;;5013095;28;20284;-78
2022/06/17 09:56:10;;;;;;;;;;;15.00;99.90;;;;;;5012136;28;19910;-76
2022/06/17 09:58:40;;;;;;;;;;;14.90;99.90;;;;;;5013278;28;19999;-76
2022/06/17 10:01:07;;;;;;;;;;;14.80;99.90;;;;;;5013142;28;19910;-78
2022/06/17 10:03:35;;;;;;;;;;;14.80;99.90;;;;;;5012876;28;20344;-78
2022/06/17 10:06:19;;;;;;;;;;;14.70;99.90;;;;;;5013192;28;19924;-76
2022/06/17 10:08:55;;;;;;;;;;;14.70;99.90;;;;;;5012412;28;20224;-78
2022/06/17 10:11:40;;;;;;;;;;;14.70;99.90;;;;;;5015318;28;20008;-78
2022/06/17 10:14:25;;;;;;;;;;;14.60;99.90;;;;;;5017046;28;20067;-78
2022/06/17 10:19:50;;;;;;;;;;;14.50;99.90;;;;;;5016897;28;19972;-77
2022/06/17 10:22:35;;;;;;;;;;;14.50;99.90;;;;;;5016876;28;19920;-79
2022/06/17 10:25:30;;;;;;;;;;;14.50;99.90;;;;;;5048746;28;20280;-78
2022/06/17 10:28:03;;;;;;;;;;;14.50;99.90;;;;;;5012036;28;19913;-78
2022/06/17 10:30:36;;;;;;;;;;;14.50;99.90;;;;;;5016574;28;20264;-78
2022/06/17 10:33:03;;;;;;;;;;;14.50;99.90;;;;;;5016706;28;19913;-78
2022/06/17 10:35:33;;;;;;;;;;;14.50;99.90;;;;;;5016606;28;19917;-73
2022/06/17 10:38:02;;;;;;;;;;;14.50;99.90;;;;;;5016296;28;19909;-78
2022/06/17 10:40:30;;;;;;;;;;;14.50;99.90;;;;;;5016529;28;19956;-79
2022/06/17 10:42:57;;;;;;;;;;;14.40;99.90;;;;;;5016288;28;19909;-78
2022/06/17 10:45:24;;;;;;;;;;;14.40;99.90;;;;;;5016406;28;19919;-79
2022/06/17 10:48:11;;;;;;;;;;;14.40;99.90;;;;;;5016406;28;19909;-78
2022/06/17 10:50:38;;;;;;;;;;;14.40;99.90;;;;;;5016360;28;19916;-77
2022/06/17 10:53:21;;;;;;;;;;;14.30;99.90;;;;;;5015979;28;19921;-78
2022/06/17 10:55:50;;;;;;;;;;;14.30;99.90;;;;;;5016104;28;20004;-77
2022/06/17 10:58:25;;;;;;;;;;;14.30;99.90;;;;;;5016039;28;19960;-79
2022/06/17 11:00:59;;;;;;;;;;;14.30;99.90;;;;;;5016077;28;19956;-78
2022/06/17 11:03:28;;;;;;;;;;;14.30;99.90;;;;;;5015971;28;19909;-79
2022/06/17 11:05:55;;;;;;;;;;;14.20;99.90;;;;;;5016037;28;20311;-76
2022/06/17 11:08:23;;;;;;;;;;;14.20;99.90;;;;;;5015943;28;19909;-78
2022/06/17 11:10:54;;;;;;;;;;;14.10;99.90;;;;;;5016153;28;19975;-79
2022/06/17 11:13:21;;;;;;;;;;;14.10;99.90;;;;;;5031170;28;19937;-78
2022/06/17 11:15:50;;;;;;;;;;;14.10;99.90;;;;;;5015835;28;20339;-77
2022/06/17 11:18:23;;;;;;;;;;;14.10;99.90;;;;;;5015929;28;20443;-77
2022/06/17 11:20:54;;;;;;;;;;;14.00;99.90;;;;;;5016032;28;20008;-76
2022/06/17 11:23:22;;;;;;;;;;;14.00;99.90;;;;;;5014308;28;19909;-77
2022/06/17 11:25:53;;;;;;;;;;;14.00;99.90;;;;;;5015538;28;19963;-79
2022/06/17 11:28:25;;;;;;;;;;;13.90;99.90;;;;;;5015638;28;19916;-78
2022/06/17 11:30:53;;;;;;;;;;;13.90;99.90;;;;;;5015483;28;19963;-79
2022/06/17 11:33:28;;;;;;;;;;;13.80;99.90;;;;;;5015575;28;20357;-76
2022/06/17 11:36:02;;;;;;;;;;;13.80;99.90;;;;;;5015222;28;20273;-76
2022/06/17 11:38:30;;;;;;;;;;;13.80;99.90;;;;;;5015459;28;19909;-79
2022/06/17 11:40:57;;;;;;;;;;;13.80;99.90;;;;;;5015484;28;19916;-78
2022/06/17 11:43:32;;;;;;;;;;;13.80;99.90;;;;;;5015464;28;20319;-77
2022/06/17 11:46:06;;;;;;;;;;;13.80;99.90;;;;;;5015236;28;20383;-79
2022/06/17 11:48:32;;;;;;;;;;;13.80;99.90;;;;;;5015394;28;19924;-76
2022/06/17 11:51:02;;;;;;;;;;;13.80;99.90;;;;;;5015136;28;19941;-79
2022/06/17 11:53:29;;;;;;;;;;;13.80;99.90;;;;;;5014661;28;20296;-79
2022/06/17 11:55:56;;;;;;;;;;;13.80;99.90;;;;;;5046993;28;19909;-79
2022/06/17 11:58:23;;;;;;;;;;;13.80;99.90;;;;;;5015156;28;20365;-79
2022/06/17 12:00:51;;;;;;;;;;;13.80;99.90;;;;;;5015117;28;19964;-78
2022/06/17 12:03:20;;;;;;;;;;;13.80;99.90;;;;;;5014984;28;20277;-79
2022/06/17 12:05:57;;;;;;;;;;;13.80;99.90;;;;;;5014691;28;20005;-78
2022/06/17 12:08:47;;;;;;;;;;;13.70;99.90;;;;;;5014582;28;20349;-78
2022/06/17 12:11:17;;;;;;;;;;;13.70;99.90;;;;;;5011765;28;20439;-79
2022/06/17 12:13:47;;;;;;;;;;;13.70;99.90;;;;;;5014677;28;19961;-79
2022/06/17 12:16:28;;;;;;;;;;;13.60;99.90;;;;;;5014031;28;20353;-73
2022/06/17 12:18:56;;;;;;;;;;;13.60;99.90;;;;;;5014673;28;20372;-79
2022/06/17 12:21:29;;;;;;;;;;;13.60;99.90;;;;;;5014764;28;19979;-78
2022/06/17 12:24:04;;;;;;;;;;;13.50;99.90;;;;;;5014450;28;19955;-80
2022/06/17 12:26:34;;;;;;;;;;;13.50;99.90;;;;;;5014088;28;19917;-80
2022/06/17 12:29:04;;;;;;;;;;;13.60;99.90;;;;;;5014554;28;19910;-79
2022/06/17 12:31:44;;;;;;;;;;;13.50;99.90;;;;;;5014276;28;19972;-78
2022/06/17 12:34:11;;;;;;;;;;;13.60;99.90;;;;;;5014173;28;19910;-78
2022/06/17 12:36:47;;;;;;;;;;;13.60;99.90;;;;;;5014497;28;19932;-78
2022/06/17 12:39:13;;;;;;;;;;;13.50;99.90;;;;;;5014199;28;19953;-80
2022/06/17 12:42:03;;;;;;;;;;;13.50;99.90;;;;;;5013493;28;20359;-82
2022/06/17 12:44:44;;;;;;;;;;;13.50;99.90;;;;;;5014444;28;19953;-80
2022/06/17 12:47:24;;;;;;;;;;;13.50;99.90;;;;;;5014417;28;19913;-82
2022/06/17 12:53:14;;;;;;;;;;;13.50;99.90;;;;;;5013800;28;19928;-78
2022/06/17 12:55:41;;;;;;;;;;;13.50;99.90;;;;;;5012001;28;19909;-81
2022/06/17 12:58:22;;;;;;;;;;;13.30;99.90;;;;;;5014103;28;19963;-81
2022/06/17 13:00:51;;;;;;;;;;;13.30;99.90;;;;;;5014105;28;19932;-80
2022/06/17 13:03:42;;;;;;;;;;;13.30;99.90;;;;;;5014114;28;20281;-80
2022/06/17 13:06:18;;;;;;;;;;;13.20;99.90;;;;;;5014316;28;19956;-74
2022/06/17 13:09:01;;;;;;;;;;;13.10;99.90;;;;;;5014054;28;19909;-75
2022/06/17 13:11:41;;;;;;;;;;;13.10;99.90;;;;;;5013984;28;19921;-78
2022/06/17 13:14:21;;;;;;;;;;;13.00;99.90;;;;;;5013821;28;19916;-78
2022/06/17 13:16:59;;;;;;;;;;;13.00;99.90;;;;;;5013794;28;20315;-75
2022/06/17 13:19:38;;;;;;;;;;;13.00;99.90;;;;;;5045369;28;19909;-75
2022/06/17 13:22:20;;;;;;;;;;;13.00;99.90;;;;;;5013824;28;19910;-80
2022/06/17 13:24:50;;;;;;;;;;;12.90;99.90;;;;;;5013336;28;19973;-80
2022/06/17 13:27:16;;;;;;;;;;;12.90;99.90;;;;;;5013740;28;20261;-79
2022/06/17 13:29:43;;;;;;;;;;;12.90;99.90;;;;;;5013347;28;19916;-80
2022/06/17 13:32:19;;;;;;;;;;;12.90;99.90;;;;;;5013560;28;19971;-78
2022/06/17 13:34:58;;;;;;;;;;;12.90;99.90;;;;;;5013569;28;19916;-79
2022/06/17 13:37:37;;;;;;;;;;;12.90;99.90;;;;;;5013508;28;19909;-80
2022/06/17 13:40:07;;;;;;;;;;;12.90;99.90;;;;;;5013013;28;20361;-79
2022/06/17 13:42:34;;;;;;;;;;;12.80;99.90;;;;;;5013537;28;19917;-77
2022/06/17 13:45:01;;;;;;;;;;;12.80;99.90;;;;;;5013775;28;19996;-73
2022/06/17 13:47:36;;;;;;;;;;;12.80;99.90;;;;;;5017753;28;19909;-76
2022/06/17 13:50:21;;;;;;;;;;;12.90;99.90;;;;;;5017626;28;20368;-79
2022/06/17 13:52:55;;;;;;;;;;;12.90;99.90;;;;;;5017112;28;20283;-77
2022/06/17 13:55:38;;;;;;;;;;;12.90;99.90;;;;;;5016951;28;19910;-79
2022/06/17 13:58:09;;;;;;;;;;;12.80;99.90;;;;;;5017331;28;19925;-76
2022/06/17 14:00:42;;;;;;;;;;;12.80;99.90;;;;;;5049043;28;20012;-78
2022/06/17 14:03:13;;;;;;;;;;;12.80;99.90;;;;;;5017288;28;19910;-78
2022/06/17 14:05:42;;;;;;;;;;;12.80;99.90;;;;;;5016820;28;19909;-77
2022/06/17 14:08:16;;;;;;;;;;;12.80;99.90;;;;;;5017106;28;19915;-79
2022/06/17 14:10:50;;;;;;;;;;;12.80;99.90;;;;;;5017111;28;19956;-78
2022/06/17 14:13:22;;;;;;;;;;;12.80;99.90;;;;;;5017097;28;19925;-79
2022/06/17 14:15:58;;;;;;;;;;;12.80;99.90;;;;;;5016889;28;19916;-79
2022/06/17 14:18:27;;;;;;;;;;;12.80;99.90;;;;;;5016930;28;19913;-77
2022/06/17 14:21:04;;;;;;;;;;;12.80;99.90;;;;;;5017029;28;19913;-80
2022/06/17 14:23:39;;;;;;;;;;;12.70;99.90;;;;;;5016805;28;19910;-80
2022/06/17 14:26:06;;;;;;;;;;;12.60;99.90;;;;;;5017087;28;19910;-80
2022/06/17 14:28:35;;;;;;;;;;;12.60;99.90;;;;;;5017071;28;19909;-78
2022/06/17 14:31:11;;;;;;;;;;;12.50;99.90;;;;;;5016875;28;20343;-79
2022/06/17 14:33:58;;;;;;;;;;;12.50;99.90;;;;;;5016899;28;19909;-77
2022/06/17 14:36:43;;;;;;;;;;;12.50;99.90;;;;;;5016959;28;19910;-80
2022/06/17 14:39:23;;;;;;;;;;;12.40;99.90;;;;;;5016876;28;19909;-79
2022/06/17 14:42:05;;;;;;;;;;;12.40;99.90;;;;;;5016455;28;20349;-80
2022/06/17 14:44:37;;;;;;;;;;;12.50;99.90;;;;;;5016600;28;19958;-79
2022/06/17 14:47:27;;;;;;;;;;;12.50;99.90;;;;;;5016625;28;19924;-79
2022/06/17 14:49:57;;;;;;;;;;;12.40;99.90;;;;;;5016367;28;19928;-80
2022/06/17 14:52:35;;;;;;;;;;;12.50;99.90;;;;;;5016007;28;19928;-79